QTR69 OTHH-EDDF
Flight info
| Callsign | QTR69 |
|---|---|
| Flight time | N/A |
| Altitude | 28000 |
| Route | DATRI L564 BAT/N0517F290 L564 MIGMA/N0508F280 M550 MEVDO Y511 ITRUX/N0501F340 Y511 NAGBO/N0492F360 Y511 PMA Z712 WEJ L677 CVO L617 NOZ L551 ANTAR DCT RIPLI UN137 SKP DCT KOGIS/N0483F380 DCT BITLA DCT MAVAR DCT SIMBA DCT AKINI/N0487F360 T161 DEBHI DEBHI1C |
| Aircraft | B77W/H-SDE1E2E3FGHIJ2J3J4J5M1RWXY/LB1D1 |
Departure
| Time | 2026-05-08 06:01 |
|---|---|
| Airport | Hamad International Airport (OTHH) |
Arrival
| Time | N/A |
|---|---|
| Airport | Frankfurt Main Airport (EDDF) |
| Time | Latitude | Longitude | Altitude | Speed | Heading |
|---|---|---|---|---|---|
| 2026-05-08 05:44 | 25.26378 | 51.61720 | 27 ft | 0 kts | 182° |
| 2026-05-08 05:52 | 25.26387 | 51.61720 | 27 ft | 2 kts | 178° |
| 2026-05-08 05:52 | 25.26403 | 51.61720 | 26 ft | 2 kts | 174° |
| 2026-05-08 05:52 | 25.26420 | 51.61717 | 24 ft | 2 kts | 165° |
| 2026-05-08 05:52 | 25.26435 | 51.61711 | 26 ft | 2 kts | 147° |
| 2026-05-08 05:53 | 25.26447 | 51.61698 | 27 ft | 2 kts | 108° |
| 2026-05-08 05:53 | 25.26449 | 51.61681 | 26 ft | 2 kts | 76° |
| 2026-05-08 05:53 | 25.26448 | 51.61676 | 25 ft | 0 kts | 70° |
| 2026-05-08 05:55 | 25.26450 | 51.61684 | 26 ft | 3 kts | 70° |
| 2026-05-08 05:56 | 25.26463 | 51.61719 | 27 ft | 7 kts | 68° |
| 2026-05-08 05:56 | 25.26490 | 51.61791 | 27 ft | 12 kts | 68° |
| 2026-05-08 05:56 | 25.26519 | 51.61873 | 27 ft | 12 kts | 69° |
| 2026-05-08 05:56 | 25.26504 | 51.61954 | 27 ft | 13 kts | 138° |
| 2026-05-08 05:57 | 25.26384 | 51.62014 | 27 ft | 21 kts | 158° |
| 2026-05-08 05:57 | 25.26248 | 51.62075 | 27 ft | 21 kts | 158° |
| 2026-05-08 05:57 | 25.26111 | 51.62135 | 28 ft | 21 kts | 158° |
| 2026-05-08 05:57 | 25.25975 | 51.62196 | 27 ft | 21 kts | 158° |
| 2026-05-08 05:58 | 25.25839 | 51.62255 | 27 ft | 21 kts | 159° |
| 2026-05-08 05:58 | 25.25704 | 51.62313 | 27 ft | 21 kts | 159° |
| 2026-05-08 05:58 | 25.25580 | 51.62370 | 27 ft | 18 kts | 157° |
| 2026-05-08 05:58 | 25.25480 | 51.62441 | 27 ft | 17 kts | 105° |
| 2026-05-08 05:59 | 25.25502 | 51.62544 | 27 ft | 2 kts | 68° |
| 2026-05-08 05:59 | 25.25502 | 51.62546 | 27 ft | 1 kts | 68° |
| 2026-05-08 06:00 | 25.25514 | 51.62577 | 27 ft | 9 kts | 67° |
| 2026-05-08 06:00 | 25.25577 | 51.62656 | 28 ft | 15 kts | 24° |
| 2026-05-08 06:00 | 25.25678 | 51.62637 | 27 ft | 17 kts | 339° |
| 2026-05-08 06:00 | 25.25881 | 51.62547 | 27 ft | 55 kts | 340° |
| 2026-05-08 06:01 | 25.26445 | 51.62298 | 27 ft | 118 kts | 338° |
| 2026-05-08 06:01 | 25.27375 | 51.61889 | 34 ft | 167 kts | 338° |
| 2026-05-08 06:01 | 25.28464 | 51.61410 | 533 ft | 168 kts | 339° |
| 2026-05-08 06:01 | 25.29581 | 51.60917 | 999 ft | 181 kts | 340° |
| 2026-05-08 06:02 | 25.30720 | 51.60441 | 1782 ft | 168 kts | 341° |
| 2026-05-08 06:02 | 25.31843 | 51.59947 | 2064 ft | 185 kts | 340° |
| 2026-05-08 06:02 | 25.33107 | 51.59397 | 2230 ft | 204 kts | 347° |
| 2026-05-08 06:02 | 25.34569 | 51.59482 | 2438 ft | 221 kts | 13° |
| 2026-05-08 06:03 | 25.36092 | 51.59952 | 2901 ft | 232 kts | 14° |
| 2026-05-08 06:03 | 25.37695 | 51.60430 | 3345 ft | 245 kts | 14° |
| 2026-05-08 06:03 | 25.39377 | 51.60931 | 3812 ft | 255 kts | 14° |
| 2026-05-08 06:03 | 25.41103 | 51.61445 | 4006 ft | 262 kts | 14° |
| 2026-05-08 06:04 | 25.42844 | 51.61965 | 3990 ft | 260 kts | 14° |
| 2026-05-08 06:04 | 25.44574 | 51.62483 | 3987 ft | 256 kts | 14° |
| 2026-05-08 06:04 | 25.46297 | 51.62998 | 3993 ft | 256 kts | 14° |
| 2026-05-08 06:04 | 25.48034 | 51.63486 | 4004 ft | 259 kts | 12° |
| 2026-05-08 06:05 | 25.49803 | 51.63907 | 4397 ft | 260 kts | 11° |
| 2026-05-08 06:05 | 25.51586 | 51.64325 | 5043 ft | 264 kts | 11° |
| 2026-05-08 06:05 | 25.53407 | 51.64759 | 5621 ft | 271 kts | 11° |
| 2026-05-08 06:05 | 25.55298 | 51.65213 | 6145 ft | 281 kts | 11° |
| 2026-05-08 06:06 | 25.57228 | 51.65679 | 6706 ft | 283 kts | 12° |
| 2026-05-08 06:06 | 25.59161 | 51.66064 | 7000 ft | 286 kts | 0° |
| 2026-05-08 06:06 | 25.61093 | 51.65551 | 7113 ft | 288 kts | 327° |
| 2026-05-08 06:06 | 25.62533 | 51.64033 | 7717 ft | 289 kts | 302° |
| 2026-05-08 06:07 | 25.63262 | 51.62011 | 8366 ft | 289 kts | 277° |
| 2026-05-08 06:07 | 25.63160 | 51.59762 | 8982 ft | 290 kts | 251° |
| 2026-05-08 06:07 | 25.62374 | 51.57740 | 9521 ft | 292 kts | 242° |
| 2026-05-08 06:07 | 25.61478 | 51.55794 | 10059 ft | 296 kts | 241° |
| 2026-05-08 06:08 | 25.60509 | 51.53732 | 10494 ft | 309 kts | 241° |
| 2026-05-08 06:08 | 25.59475 | 51.51530 | 10638 ft | 332 kts | 241° |
| 2026-05-08 06:08 | 25.58383 | 51.49186 | 10802 ft | 354 kts | 242° |
| 2026-05-08 06:08 | 25.57227 | 51.46684 | 10988 ft | 375 kts | 242° |
| 2026-05-08 06:09 | 25.56025 | 51.44061 | 11506 ft | 385 kts | 242° |
| 2026-05-08 06:09 | 25.53017 | 51.37481 | 13235 ft | 400 kts | 242° |
| 2026-05-08 06:09 | 25.47183 | 51.27005 | 16098 ft | 405 kts | 212° |
| 2026-05-08 06:09 | 25.36188 | 51.25337 | 19068 ft | 406 kts | 179° |
| 2026-05-08 06:10 | 25.24810 | 51.26520 | 21280 ft | 426 kts | 167° |
| 2026-05-08 06:10 | 25.13506 | 51.31195 | 23376 ft | 445 kts | 161° |
| 2026-05-08 06:10 | 25.01777 | 51.36139 | 25135 ft | 456 kts | 162° |
| 2026-05-08 06:10 | 24.90092 | 51.41931 | 26721 ft | 474 kts | 150° |
| 2026-05-08 06:11 | 24.79217 | 51.50565 | 28310 ft | 484 kts | 148° |
| 2026-05-08 06:11 | 24.67219 | 51.55998 | 29380 ft | 477 kts | 186° |
| 2026-05-08 06:11 | 24.54162 | 51.52923 | 30651 ft | 475 kts | 195° |
| 2026-05-08 06:11 | 24.41282 | 51.49836 | 32117 ft | 468 kts | 194° |
| 2026-05-08 06:12 | 24.36038 | 51.48604 | 32717 ft | 466 kts | 194° |
| 2026-05-08 06:12 | 24.32871 | 51.47857 | 33062 ft | 464 kts | 194° |
| 2026-05-08 06:12 | 24.29764 | 51.47124 | 33410 ft | 463 kts | 194° |
| 2026-05-08 06:12 | 24.26608 | 51.46381 | 33747 ft | 462 kts | 194° |
| 2026-05-08 06:13 | 24.22591 | 51.45537 | 33879 ft | 467 kts | 190° |
| 2026-05-08 06:13 | 24.07549 | 51.45223 | 33902 ft | 467 kts | 182° |
| 2026-05-08 06:14 | 23.81912 | 51.45308 | 33917 ft | 462 kts | 183° |
| 2026-05-08 06:14 | 23.55734 | 51.45379 | 33913 ft | 476 kts | 182° |
| 2026-05-08 06:15 | 23.29669 | 51.45692 | 33887 ft | 462 kts | 182° |
| 2026-05-08 06:15 | 23.03726 | 51.46097 | 33938 ft | 474 kts | 181° |
| 2026-05-08 06:15 | 22.92611 | 51.45992 | 33890 ft | 475 kts | 194° |
| 2026-05-08 06:16 | 22.85214 | 51.40743 | 33967 ft | 460 kts | 230° |
| 2026-05-08 06:16 | 22.81697 | 51.33059 | 33919 ft | 466 kts | 257° |
| 2026-05-08 06:16 | 22.80404 | 51.24456 | 33888 ft | 477 kts | 257° |
| 2026-05-08 06:17 | 22.72905 | 50.82243 | 33864 ft | 464 kts | 256° |
| 2026-05-08 06:17 | 22.67873 | 50.54608 | 33983 ft | 475 kts | 256° |
| 2026-05-08 06:18 | 22.62678 | 50.26335 | 33893 ft | 471 kts | 256° |
| 2026-05-08 06:18 | 22.57604 | 49.99018 | 33948 ft | 468 kts | 256° |
| 2026-05-08 06:19 | 22.54033 | 49.70551 | 33932 ft | 486 kts | 272° |
| 2026-05-08 06:19 | 22.56842 | 49.41927 | 33892 ft | 471 kts | 271° |
| 2026-05-08 06:20 | 22.59491 | 49.13350 | 33960 ft | 485 kts | 271° |
| 2026-05-08 06:20 | 22.62098 | 48.84816 | 33891 ft | 469 kts | 271° |
| 2026-05-08 06:21 | 22.64611 | 48.56634 | 33997 ft | 475 kts | 271° |
| 2026-05-08 06:21 | 22.67132 | 48.27893 | 33905 ft | 476 kts | 271° |
| 2026-05-08 06:22 | 22.69523 | 47.99975 | 33979 ft | 467 kts | 270° |
| 2026-05-08 06:22 | 22.71877 | 47.71532 | 33955 ft | 480 kts | 270° |
| 2026-05-08 06:23 | 22.74183 | 47.43129 | 33938 ft | 465 kts | 270° |
| 2026-05-08 06:23 | 22.76387 | 47.15325 | 34014 ft | 471 kts | 270° |
| 2026-05-08 06:24 | 22.78675 | 46.86559 | 34003 ft | 480 kts | 270° |
| 2026-05-08 06:24 | 22.80894 | 46.58000 | 33980 ft | 464 kts | 269° |
| 2026-05-08 06:25 | 22.82519 | 46.36592 | 34625 ft | 469 kts | 269° |
| 2026-05-08 06:25 | 22.82781 | 46.33067 | 34961 ft | 466 kts | 269° |
| 2026-05-08 06:25 | 22.83039 | 46.29575 | 35289 ft | 464 kts | 269° |
| 2026-05-08 06:26 | 22.83295 | 46.26099 | 35609 ft | 461 kts | 268° |
| 2026-05-08 06:26 | 22.83543 | 46.22705 | 35866 ft | 461 kts | 268° |
| 2026-05-08 06:26 | 22.84376 | 46.11250 | 35993 ft | 466 kts | 268° |
| 2026-05-08 06:27 | 22.86389 | 45.83229 | 35988 ft | 462 kts | 268° |
| 2026-05-08 06:27 | 22.88300 | 45.55930 | 35989 ft | 449 kts | 268° |
| 2026-05-08 06:28 | 22.90162 | 45.28594 | 36058 ft | 464 kts | 268° |
| 2026-05-08 06:28 | 22.92024 | 45.00718 | 35988 ft | 453 kts | 268° |
| 2026-05-08 06:29 | 22.93771 | 44.73813 | 36074 ft | 446 kts | 267° |
| 2026-05-08 06:29 | 22.96209 | 44.60307 | 36056 ft | 468 kts | 281° |
| 2026-05-08 06:29 | 23.00395 | 44.47025 | 36042 ft | 471 kts | 281° |
| 2026-05-08 06:30 | 23.08583 | 44.20447 | 36038 ft | 454 kts | 281° |
| 2026-05-08 06:30 | 23.16583 | 43.94216 | 36073 ft | 464 kts | 281° |
| 2026-05-08 06:31 | 23.24703 | 43.67469 | 36060 ft | 463 kts | 280° |
| 2026-05-08 06:31 | 23.32526 | 43.41482 | 36066 ft | 447 kts | 279° |
| 2026-05-08 06:32 | 23.40315 | 43.15393 | 36131 ft | 462 kts | 279° |
| 2026-05-08 06:32 | 23.48206 | 42.88679 | 36084 ft | 455 kts | 279° |
| 2026-05-08 06:33 | 23.55834 | 42.62755 | 36108 ft | 448 kts | 279° |
| 2026-05-08 06:33 | 23.63564 | 42.36445 | 36110 ft | 462 kts | 279° |
| 2026-05-08 06:34 | 23.71180 | 42.10140 | 36020 ft | 445 kts | 278° |
| 2026-05-08 06:34 | 23.78610 | 41.84411 | 36086 ft | 445 kts | 278° |
| 2026-05-08 06:35 | 23.86103 | 41.58393 | 36053 ft | 453 kts | 278° |
| 2026-05-08 06:35 | 23.93471 | 41.32547 | 36011 ft | 435 kts | 278° |
| 2026-05-08 06:36 | 24.00681 | 41.07033 | 36035 ft | 447 kts | 278° |
| 2026-05-08 06:36 | 24.08008 | 40.80949 | 36010 ft | 446 kts | 278° |
| 2026-05-08 06:37 | 24.11571 | 40.68178 | 35999 ft | 435 kts | 278° |
| 2026-05-08 06:37 | 24.15079 | 40.55546 | 35997 ft | 433 kts | 278° |
| 2026-05-08 06:37 | 24.20100 | 40.43230 | 36056 ft | 453 kts | 288° |
| 2026-05-08 06:37 | 24.26062 | 40.30883 | 36032 ft | 460 kts | 288° |
| 2026-05-08 06:38 | 24.37720 | 40.06417 | 36002 ft | 442 kts | 288° |
| 2026-05-08 06:38 | 24.47029 | 39.86753 | 36042 ft | 438 kts | 288° |
| 2026-05-08 06:39 | 24.55325 | 39.70922 | 36060 ft | 467 kts | 302° |
| 2026-05-08 06:39 | 24.61906 | 39.64527 | 36051 ft | 488 kts | 314° |
| 2026-05-08 06:39 | 24.83896 | 39.47206 | 35986 ft | 481 kts | 315° |
| 2026-05-08 06:40 | 25.05587 | 39.29782 | 36053 ft | 488 kts | 315° |
| 2026-05-08 06:40 | 25.25745 | 39.10547 | 35992 ft | 462 kts | 295° |
| 2026-05-08 06:41 | 25.34868 | 38.94794 | 35984 ft | 450 kts | 295° |
| 2026-05-08 06:41 | 25.48631 | 38.71157 | 36009 ft | 464 kts | 296° |
| 2026-05-08 06:42 | 25.62673 | 38.46961 | 35946 ft | 463 kts | 297° |
| 2026-05-08 06:42 | 25.76306 | 38.23332 | 35910 ft | 457 kts | 297° |
| 2026-05-08 06:43 | 25.90205 | 37.99117 | 35979 ft | 472 kts | 299° |
| 2026-05-08 06:43 | 26.00606 | 37.78499 | 35947 ft | 451 kts | 285° |
| 2026-05-08 06:44 | 26.04587 | 37.51135 | 36011 ft | 457 kts | 278° |
| 2026-05-08 06:44 | 26.08349 | 37.22809 | 35928 ft | 458 kts | 278° |
| 2026-05-08 06:45 | 26.11953 | 36.95232 | 35923 ft | 445 kts | 278° |
| 2026-05-08 06:45 | 26.15509 | 36.67615 | 35950 ft | 459 kts | 279° |
| 2026-05-08 06:46 | 26.20173 | 36.46560 | 35952 ft | 445 kts | 303° |
| 2026-05-08 06:46 | 26.28491 | 36.36510 | 35895 ft | 439 kts | 314° |
| 2026-05-08 06:46 | 26.37076 | 36.26726 | 35937 ft | 441 kts | 313° |
| 2026-05-08 06:47 | 26.54363 | 36.06720 | 35916 ft | 450 kts | 313° |
| 2026-05-08 06:47 | 26.71364 | 35.86957 | 35884 ft | 431 kts | 314° |
| 2026-05-08 06:48 | 26.87974 | 35.67568 | 35965 ft | 440 kts | 314° |
| 2026-05-08 06:48 | 27.04983 | 35.47615 | 35895 ft | 438 kts | 314° |
| 2026-05-08 06:49 | 27.21479 | 35.28176 | 35916 ft | 425 kts | 315° |
| 2026-05-08 06:49 | 27.37899 | 35.08737 | 35984 ft | 438 kts | 315° |
| 2026-05-08 06:50 | 27.54798 | 34.89035 | 35897 ft | 422 kts | 318° |
| 2026-05-08 06:50 | 27.71659 | 34.71270 | 35965 ft | 420 kts | 319° |
| 2026-05-08 06:51 | 27.89040 | 34.52787 | 35960 ft | 429 kts | 319° |
| 2026-05-08 06:51 | 28.05283 | 34.33769 | 35914 ft | 414 kts | 313° |
| 2026-05-08 06:52 | 28.12805 | 34.23318 | 35957 ft | 419 kts | 313° |
| 2026-05-08 06:52 | 28.17226 | 34.17190 | 35992 ft | 425 kts | 313° |
| 2026-05-08 06:53 | 28.31681 | 33.97072 | 35909 ft | 426 kts | 313° |
| 2026-05-08 06:53 | 28.40666 | 33.84520 | 35988 ft | 413 kts | 313° |
| 2026-05-08 06:54 | 28.55177 | 33.64174 | 36027 ft | 424 kts | 313° |
| 2026-05-08 06:54 | 28.70230 | 33.42978 | 35988 ft | 430 kts | 313° |
| 2026-05-08 06:55 | 28.84892 | 33.22229 | 35999 ft | 415 kts | 313° |
| 2026-05-08 06:55 | 28.99632 | 33.01278 | 36083 ft | 428 kts | 313° |
| 2026-05-08 06:56 | 29.14541 | 32.79965 | 36050 ft | 430 kts | 312° |
| 2026-05-08 06:56 | 29.29216 | 32.58882 | 36102 ft | 418 kts | 312° |
| 2026-05-08 06:57 | 29.43958 | 32.37366 | 36112 ft | 435 kts | 311° |
| 2026-05-08 06:57 | 29.58739 | 32.15676 | 36060 ft | 426 kts | 311° |
| 2026-05-08 06:58 | 29.73202 | 31.94349 | 36112 ft | 425 kts | 311° |
| 2026-05-08 06:58 | 29.87752 | 31.72194 | 36132 ft | 439 kts | 310° |
| 2026-05-08 06:59 | 30.02094 | 31.49892 | 36059 ft | 425 kts | 310° |
| 2026-05-08 06:59 | 30.17723 | 31.29637 | 36101 ft | 428 kts | 319° |
| 2026-05-08 07:00 | 30.35355 | 31.10711 | 36107 ft | 435 kts | 319° |
| 2026-05-08 07:00 | 30.52662 | 30.92000 | 36093 ft | 419 kts | 318° |
| 2026-05-08 07:01 | 30.61217 | 30.82719 | 36135 ft | 424 kts | 318° |